Sintra Airport Sintra PT
ICAO: LPST
IATA:
Category: Medium
Scheduled Services: No

Elevation: 440 ft
TransAlt. 4000 ft.

Airport Communications:
APP:118.6
GND:122.1
TWR:119.85

LPST Zoom In..

If you have problems with the map follow the link
https://www.worldairports.se/pages/airport.php?
ICAO=LPST

Runways:

(A) RW 14 length 5906 ft width 131 ft
---- / hdg 139

(B) RW 32 length 5906 ft width 131 ft
---- / hdg 319

Location; LPST
Day. 18 / Time. 17.00 Zulu
* QNH: 1020
* Temperature: 10° c. 50°f.
* Wind from: 210° Speed 05 kn.
Dewpoint: 08° c.
Visibility: 3000 m.
Clouds: Scattered 700 ft.
Clouds: Overcast 1700 ft.
Conditions: Mist.

LPST 181700Z 21005KT 180V240 3000 -RADZ BR SCT007 OVC017 10/08 Q1020


Wind From 210°
Speed 05 kn.

 
 
jpsmedia.com for Web Design worldairports.se 2019   terms of use